地図

経路データ

SID SEASON NUMBER BASIN SUBBASIN NAME ISO_TIME NATURE LAT LON WMO_WIND WMO_PRES WMO_AGENCY TRACK_TYPE DIST2LAND LANDFALL IFLAG USA_AGENCY USA_ATCF_ID USA_LAT USA_LON USA_RECORD USA_STATUS USA_WIND USA_PRES USA_SSHS USA_R34_NE USA_R34_SE USA_R34_SW USA_R34_NW USA_R50_NE USA_R50_SE USA_R50_SW USA_R50_NW USA_R64_NE USA_R64_SE USA_R64_SW USA_R64_NW USA_POCI USA_ROCI USA_RMW USA_EYE TOKYO_LAT TOKYO_LON TOKYO_GRADE TOKYO_WIND TOKYO_PRES TOKYO_R50_DIR TOKYO_R50_LONG TOKYO_R50_SHORT TOKYO_R30_DIR TOKYO_R30_LONG TOKYO_R30_SHORT TOKYO_LAND CMA_LAT CMA_LON CMA_CAT CMA_WIND CMA_PRES HKO_LAT HKO_LON HKO_CAT HKO_WIND HKO_PRES NEWDELHI_LAT NEWDELHI_LON NEWDELHI_GRADE NEWDELHI_WIND NEWDELHI_PRES NEWDELHI_CI NEWDELHI_DP NEWDELHI_POCI REUNION_LAT REUNION_LON REUNION_TYPE REUNION_WIND REUNION_PRES REUNION_TNUM REUNION_CI REUNION_RMW REUNION_R34_NE REUNION_R34_SE REUNION_R34_SW REUNION_R34_NW REUNION_R50_NE REUNION_R50_SE REUNION_R50_SW REUNION_R50_NW REUNION_R64_NE REUNION_R64_SE REUNION_R64_SW REUNION_R64_NW BOM_LAT BOM_LON BOM_TYPE BOM_WIND BOM_PRES BOM_TNUM BOM_CI BOM_RMW BOM_R34_NE BOM_R34_SE BOM_R34_SW BOM_R34_NW BOM_R50_NE BOM_R50_SE BOM_R50_SW BOM_R50_NW BOM_R64_NE BOM_R64_SE BOM_R64_SW BOM_R64_NW BOM_ROCI BOM_POCI BOM_EYE BOM_POS_METHOD BOM_PRES_METHOD NADI_LAT NADI_LON NADI_CAT NADI_WIND NADI_PRES WELLINGTON_LAT WELLINGTON_LON WELLINGTON_WIND WELLINGTON_PRES DS824_LAT DS824_LON DS824_STAGE DS824_WIND DS824_PRES TD9636_LAT TD9636_LON TD9636_STAGE TD9636_WIND TD9636_PRES TD9635_LAT TD9635_LON TD9635_WIND TD9635_PRES TD9635_ROCI NEUMANN_LAT NEUMANN_LON NEUMANN_CLASS NEUMANN_WIND NEUMANN_PRES MLC_LAT MLC_LON MLC_CLASS MLC_WIND MLC_PRES USA_GUST BOM_GUST BOM_GUST_PER REUNION_GUST REUNION_GUST_PER USA_SEAHGT USA_SEARAD_NE USA_SEARAD_SE USA_SEARAD_SW USA_SEARAD_NW STORM_SPEED STORM_DIR
1952018S15114 1952 5 SI WA NOT_NAMED 1952-01-17 23:00:00 NR -15.2000 114.100 main 663 663 __________O___ -1 -15.2000 114.100 7 5 0
1952018S15114 1952 5 SI WA NOT_NAMED 1952-01-18 00:00:00 TS -15.1161 114.088 main 674 674 O________OP___ jtwc_sh SH081952 -15.1000 114.100 -1 -15.1000 114.100 TC -15.1322 114.076 7 17 329
1952018S15114 1952 5 SI WA NOT_NAMED 1952-01-18 01:00:00 TS -14.7289 113.802 1000 bom main 666 645 P_____O__PP___ SH081952 -15.0344 114.064 -1 -12.5000 112.000 1000 -15.0344 114.064 TC -15.0645 114.052 7 15 326
1952018S15114 1952 5 SI WA NOT_NAMED 1952-01-18 03:00:00 TS -14.5121 113.673 main 645 625 P_____P__PP___ SH081952 -14.9025 113.995 -1 -12.5064 112.053 -14.9025 113.995 TC -14.9293 114.000 7 6 332
1952018S15114 1952 5 SI WA NOT_NAMED 1952-01-18 06:00:00 TS -14.2713 113.549 main 627 596 O_____P__OP___ jtwc_sh SH081952 -14.7000 113.900 -1 -12.5192 112.132 -14.7000 113.900 TC -14.7281 113.910 7 6 333
1952018S15114 1952 5 SI WA NOT_NAMED 1952-01-18 09:00:00 TS -14.0138 113.409 main 596 585 P_____P__PP___ SH081952 -14.4925 113.815 -1 -12.5403 112.209 -14.4925 113.815 TC -14.5299 113.796 7 5 333
1952018S15114 1952 5 SI WA NOT_NAMED 1952-01-18 11:00:00 TS -13.9208 113.362 main 585 585 P_____P__PO___ SH081952 -14.3609 113.745 -1 -12.5615 112.257 -14.3609 113.745 TC -14.4000 113.700 7 3 329
1952018S15114 1952 5 SI WA NOT_NAMED 1952-01-18 12:00:00 TS -13.8777 113.332 main 588 577 O_____P__OP___ jtwc_sh SH081952 -14.3000 113.700 -1 -12.5747 112.281 -14.3000 113.700 TC -14.3361 113.646 7 3 318
1952018S15114 1952 5 SI WA NOT_NAMED 1952-01-18 15:00:00 TS -13.7529 113.206 main 580 569 P_____P__PP___ SH081952 -14.1125 113.507 -1 -12.6275 112.346 -14.1125 113.507 TC -14.1592 113.463 7 3 307
1952018S15114 1952 5 SI WA NOT_NAMED 1952-01-18 18:00:00 TS -13.6831 113.069 main 572 572 O_____P__OP___ jtwc_sh SH081952 -14.0000 113.300 -1 -12.7036 112.404 -14.0000 113.300 TC -14.0288 113.271 7 3 284
1952018S15114 1952 5 SI WA NOT_NAMED 1952-01-18 21:00:00 TS -13.6911 112.955 main 575 575 P_____P__PP___ SH081952 -13.9900 113.135 -1 -12.8080 112.453 -13.9900 113.135 TC -13.9763 113.096 7 2 249
1952018S15114 1952 5 SI WA NOT_NAMED 1952-01-18 23:00:00 TS -13.7490 112.891 main 579 579 P_____P__PO___ SH081952 -14.0500 113.042 -1 -12.8959 112.479 -14.0500 113.042 TC -14.0000 113.000 7 2 242
1952018S15114 1952 5 SI WA NOT_NAMED 1952-01-19 00:00:00 TS -13.7490 112.841 main 581 581 O_____P__OP___ jtwc_sh SH081952 -14.1000 113.000 -1 -12.9458 112.490 -14.1000 113.000 TC -14.0376 112.959 7 3 258
1952018S15114 1952 5 SI WA NOT_NAMED 1952-01-19 01:00:00 TS -13.7670 112.797 990 bom main 592 592 P_____O__PP___ SH081952 -14.1605 112.956 -1 -13.0000 112.500 990 -14.1605 112.956 TC -14.0893 112.923 7 3 217
1952018S15114 1952 5 SI WA NOT_NAMED 1952-01-19 03:00:00 TS -13.8791 112.739 main 605 605 P_____P__PP___ SH081952 -14.3200 112.878 -1 -13.1217 112.515 -14.3200 112.878 TC -14.2281 112.862 7 4 197
1952018S15114 1952 5 SI WA NOT_NAMED 1952-01-19 06:00:00 TS -14.1075 112.690 main 627 627 O_____P__OP___ jtwc_sh SH081952 -14.6000 112.800 -1 -13.3372 112.532 -14.6000 112.800 TC -14.4986 112.803 7 5 186
1952018S15114 1952 5 SI WA NOT_NAMED 1952-01-19 09:00:00 TS -14.3755 112.685 main 660 660 P_____P__PP___ SH081952 -14.8575 112.777 -1 -13.5921 112.547 -14.8575 112.777 TC -14.8023 112.786 7 5 179
1952018S15114 1952 5 SI WA NOT_NAMED 1952-01-19 11:00:00 TS -14.5568 112.699 main 681 681 P_____P__PO___ SH081952 -15.0224 112.789 -1 -13.7836 112.560 -15.0224 112.789 TC -15.0000 112.800 7 5 0
1952018S15114 1952 5 SI WA NOT_NAMED 1952-01-19 12:00:00 TS -14.6422 112.708 main 681 681 O_____P__OP___ jtwc_sh SH081952 -15.1000 112.800 -1 -13.8859 112.568 -15.1000 112.800 TC -15.0722 112.805 7 5 173
1952018S15114 1952 5 SI WA NOT_NAMED 1952-01-19 15:00:00 TS -14.8922 112.741 main 713 710 P_____P__PP___ SH081952 -15.3000 112.820 -1 -14.2182 112.602 -15.3000 112.820 TC -15.2806 112.848 7 5 169
1952018S15114 1952 5 SI WA NOT_NAMED 1952-01-19 18:00:00 TS -15.1566 112.816 main 731 707 O_____P__OP___ jtwc_sh SH081952 -15.5000 112.900 -1 -14.5888 112.655 -15.5000 112.900 TC -15.4916 112.938 7 6 161
1952018S15114 1952 5 SI WA NOT_NAMED 1952-01-19 21:00:00 TS -15.4512 112.943 main 697 672 P_____P__PP___ SH081952 -15.7275 113.063 -1 -14.9972 112.736 -15.7275 113.063 TC -15.7239 113.078 7 7 156
1952018S15114 1952 5 SI WA NOT_NAMED 1952-01-19 23:00:00 TS -15.6700 113.059 main 667 657 P_____P__PO___ SH081952 -15.9026 113.214 -1 -15.2903 112.809 -15.9026 113.214 TC -15.9000 113.200 7 8 152
1952018S15114 1952 5 SI WA NOT_NAMED 1952-01-20 00:00:00 TS -15.7886 113.125 main 657 642 O_____P__OP___ jtwc_sh SH081952 -16.0000 113.300 -1 -15.4431 112.852 -16.0000 113.300 TC -16.0000 113.273 7 8 151
1952018S15114 1952 5 SI WA NOT_NAMED 1952-01-20 01:00:00 TS -15.9132 113.197 985 bom main 642 608 P_____O__PP___ SH081952 -16.1053 113.391 -1 -15.6000 112.900 985 -16.1053 113.391 TC -16.1050 113.354 7 9 150
1952018S15114 1952 5 SI WA NOT_NAMED 1952-01-20 03:00:00 TS -16.1800 113.363 main 602 553 P_____P__PP___ SH081952 -16.3350 113.592 -1 -15.9351 113.041 -16.3350 113.592 TC -16.3275 113.533 7 10 149
1952018S15114 1952 5 SI WA NOT_NAMED 1952-01-20 06:00:00 TS -16.6078 113.632 main 553 498 O_____P__OP___ jtwc_sh SH081952 -16.7000 113.900 -1 -16.4785 113.289 -16.7000 113.900 TC -16.6840 113.827 7 10 149
1952018S15114 1952 5 SI WA NOT_NAMED 1952-01-20 09:00:00 TS -17.0464 113.900 main 498 459 P_____P__PP___ SH081952 -17.0500 114.173 -1 -17.0584 113.571 -17.0500 114.173 TC -17.0538 114.121 7 10 150
1952018S15114 1952 5 SI WA NOT_NAMED 1952-01-20 11:00:00 TS -17.3446 114.072 main 459 439 P_____P__PO___ SH081952 -17.2833 114.331 -1 -17.4584 113.771 -17.2833 114.331 TC -17.3000 114.300 7 10 152
1952018S15114 1952 5 SI WA NOT_NAMED 1952-01-20 12:00:00 TS -17.4895 114.151 main 434 385 O_____P__OP___ jtwc_sh SH081952 -17.4000 114.400 -1 -17.6610 113.873 -17.4000 114.400 TC -17.3957 114.370 7 10 154
1952018S15114 1952 5 SI WA NOT_NAMED 1952-01-20 15:00:00 TS -17.9256 114.370 main 385 335 P_____P__PP___ SH081952 -17.7499 114.558 -1 -18.2724 114.183 -17.7499 114.558 TC -17.6741 114.556 7 10 155
1952018S15114 1952 5 SI WA NOT_NAMED 1952-01-20 18:00:00 TS -18.3690 114.582 main 325 276 O_____P__OP___ jtwc_sh SH081952 -18.1000 114.700 -1 -18.8791 114.488 -18.1000 114.700 TC -17.9811 114.721 7 10 154
1952018S15114 1952 5 SI WA NOT_NAMED 1952-01-20 21:00:00 TS -18.7991 114.816 main 276 237 P_____P__PP___ SH081952 -18.3825 114.893 -1 -19.4674 114.773 -18.3825 114.893 TC -18.3695 114.883 7 10 154
1952018S15114 1952 5 SI WA NOT_NAMED 1952-01-20 23:00:00 TS -19.1210 114.977 main 237 218 P_____P__PO___ SH081952 -18.6320 115.031 -1 -19.8427 114.946 -18.6320 115.031 TC -18.7000 115.000 7 11 156
1952018S15114 1952 5 SI WA NOT_NAMED 1952-01-21 00:00:00 TS -19.3063 115.059 main 212 194 O_____P__OP___ jtwc_sh SH081952 -18.8000 115.100 -1 -20.0239 115.026 -18.8000 115.100 TC -18.9075 115.068 7 12 160
1952018S15114 1952 5 SI WA NOT_NAMED 1952-01-21 01:00:00 TS -19.5092 115.125 975 bom main 194 152 P_____O__PP___ SH081952 -19.0153 115.164 -1 -20.2000 115.100 975 4 -19.0153 115.164 TC -19.1328 115.138 7 13 164
1952018S15114 1952 5 SI WA NOT_NAMED 1952-01-21 03:00:00 TS -19.9521 115.251 main 137 76 P_____P__PP___ SH081952 -19.5325 115.293 -1 -20.5234 115.213 975 -19.5325 115.293 TC -19.6263 115.284 7 14 165
1952018S15114 1952 5 SI WA NOT_NAMED 1952-01-21 06:00:00 TS -20.6654 115.447 main 68 23 O_____P__OP___ jtwc_sh SH081952 -20.4000 115.500 -1 -21.0015 115.381 975 -20.4000 115.500 TC -20.4359 115.511 7 15 165
1952018S15114 1952 5 SI WA NOT_NAMED 1952-01-21 07:50:00 TS -21.0952 115.581 975 bom main 23 0 P_____O__PP___ SH081952 -20.9039 115.650 -1 -21.3000 115.500 975 -20.9039 115.650 TC -20.9458 115.654 7 15 164
1952018S15114 1952 5 SI WA NOT_NAMED 1952-01-21 09:00:00 TS -21.3669 115.663 main 0 0 P_____P__PP___ SH081952 -21.2225 115.750 -1 -21.4877 115.540 -21.2225 115.750 TC -21.2674 115.745 7 14 164
1952018S15114 1952 5 SI WA NOT_NAMED 1952-01-21 11:00:00 TS -21.8224 115.803 main 0 0 P_____P__PO___ SH081952 -21.7505 115.920 -1 -21.8118 115.594 -21.7505 115.920 TC -21.8000 115.900 7 14 164
1952018S15114 1952 5 SI WA NOT_NAMED 1952-01-21 12:00:00 TS -22.0354 115.866 main 0 0 O_____P__OP___ jtwc_sh SH081952 -22.0000 116.000 -1 -21.9761 115.621 -22.0000 116.000 TC -22.0181 115.945 7 13 164
1952018S15114 1952 5 SI WA NOT_NAMED 1952-01-21 15:00:00 TS -22.6381 116.056 main 0 0 P_____P__PP___ SH081952 -22.6649 116.201 -1 -22.4841 115.738 -22.6649 116.201 TC -22.6386 116.067 7 13 162
1952018S15114 1952 5 SI WA NOT_NAMED 1952-01-21 18:00:00 TS -23.2360 116.298 main 0 0 O_____P__OP___ jtwc_sh SH081952 -23.3000 116.400 -1 -23.0263 115.977 -23.3000 116.400 TC -23.2508 116.229 7 13 157
1952018S15114 1952 5 SI WA NOT_NAMED 1952-01-21 21:00:00 TS -23.8629 116.618 main 0 0 P_____P__PP___ SH081952 -23.9544 116.569 -1 -23.6167 116.424 -23.9544 116.569 TC -23.9090 116.508 7 15 152
1952018S15114 1952 5 SI WA NOT_NAMED 1952-01-21 23:00:00 TS -24.3172 116.933 main 0 0 P_____P__PO___ SH081952 -24.4351 116.758 -1 -24.0433 116.882 -24.4351 116.758 TC -24.4000 116.800 7 17 147
1952018S15114 1952 5 SI WA NOT_NAMED 1952-01-22 00:00:00 TS -24.5675 117.130 main 0 0 O_____P__OP___ jtwc_sh SH081952 -24.7000 116.900 -1 -24.2677 117.170 -24.7000 116.900 TC -24.6985 116.964 7 19 143
1952018S15114 1952 5 SI WA NOT_NAMED 1952-01-22 01:00:00 TS -24.8330 117.356 985 bom main 0 0 P_____O__PP___ SH081952 -24.9906 117.072 -1 -24.5000 117.500 985 -24.9906 117.072 TC -25.0117 117.150 7 22 140
1952018S15114 1952 5 SI WA NOT_NAMED 1952-01-22 03:00:00 TS -25.3968 117.902 main 0 0 P_____P__PP___ SH081952 -25.6194 117.516 -1 -24.9980 118.294 -25.6194 117.516 TC -25.6690 117.586 7 24 135
1952018S15114 1952 5 SI WA NOT_NAMED 1952-01-22 06:00:00 TS -26.2673 118.923 main 0 0 O_____P__OP___ jtwc_sh SH081952 -26.6000 118.400 -1 -25.7565 119.699 -26.6000 118.400 TC -26.6799 118.413 7 26 132
1952018S15114 1952 5 SI WA NOT_NAMED 1952-01-22 07:00:00 TS -26.5417 119.315 bom main 0 0 P_____O__PP___ SH081952 -26.9210 118.717 -1 -26.0000 120.200 -26.9210 118.717 TC -27.0097 118.738 7 27 125
1952018S15114 1952 5 SI WA NOT_NAMED 1952-01-22 09:00:00 TS -27.0566 120.174 main 0 0 P_____P__PP___ SH081952 -27.5512 119.430 -1 -26.3734 121.256 -27.5512 119.430 TC -27.6377 119.466 7 28 122
1952018S15114 1952 5 SI WA NOT_NAMED 1952-01-22 11:00:00 TS -27.5352 121.118 main 0 0 P_____P__PO___ SH081952 -28.1359 120.250 -1 -26.7034 122.370 -28.1359 120.250 TC -28.2000 120.300 7 30 115
1952018S15114 1952 5 SI WA NOT_NAMED 1952-01-22 12:00:00 TS -27.6882 121.718 main 0 0 O_____P__OP___ jtwc_sh SH081952 -28.4000 120.700 -1 -26.8667 122.932 -28.4000 120.700 TC -28.4485 120.758 7 32 109
1952018S15114 1952 5 SI WA NOT_NAMED 1952-01-22 15:00:00 TS -28.2193 123.414 main 0 0 P_____P__PP___ SH081952 -29.0619 122.187 -1 -27.4205 124.567 -29.0619 122.187 TC -29.0693 122.278 7 32 110
1952018S15114 1952 5 SI WA NOT_NAMED 1952-01-22 18:00:00 TS -28.7820 125.105 bom main 0 0 O_____O__OP___ jtwc_sh SH081952 -29.6000 123.800 -1 -28.2000 126.000 -29.6000 123.800 TC -29.5368 123.969 7 32 113
1952018S15114 1952 5 SI WA NOT_NAMED 1952-01-22 21:00:00 TS -29.4745 126.747 main 0 0 ______P___P___ SH081952 -1 -29.2671 127.222 TC -29.8966 125.769 7 31 119
1952018S15114 1952 5 SI WA NOT_NAMED 1952-01-22 22:00:00 TS -29.8001 127.179 bom main 0 0 ______O___P___ SH081952 -1 -29.7000 127.500 TC -30.0007 126.383 7 30 136
1952018S15114 1952 5 SI WA NOT_NAMED 1952-01-22 23:00:00 TS -30.1864 127.526 main 0 0 ______P___O___ SH081952 -1 -30.1748 127.688 TC -30.1000 127.000 7 31 149
1952018S15114 1952 5 SI WA NOT_NAMED 1952-01-23 00:00:00 TS -30.6866 127.807 main 0 0 ______P_______ -1 -30.6799 127.811 7 32 162
1952018S15114 1952 5 SI WA NOT_NAMED 1952-01-23 01:00:00 NR -31.2000 127.900 995 bom main 0 ______O_______ -1 -31.2000 127.900 995 7 31 172

IBTrACS Databaseについて

本データベースは、米国NOAAが公開する1842年以降の世界の熱帯低気圧のベストトラックデータアーカイブInternational Best Track Archive for Climate Stewardship (IBTrACS)を、ウェブで閲覧しやすい形式に変換したものです。

最終更新日:2021-10-08